createdAt,value
2022-11-24T04:52:44.652Z,1.10
2022-11-24T04:55:13.162Z,1.10
2022-11-24T04:57:41.709Z,1.10
2022-11-24T05:00:11.705Z,1.10
2022-11-24T05:02:40.324Z,1.10
2022-11-24T05:05:09.720Z,1.00
2022-11-24T05:07:38.293Z,1.00
2022-11-24T05:10:26.270Z,0.90
2022-11-24T05:12:59.591Z,0.90
2022-11-24T05:15:28.339Z,0.90
2022-11-24T05:17:57.101Z,0.90
2022-11-24T05:20:26.097Z,0.90
2022-11-24T05:22:54.425Z,0.90
2022-11-24T05:25:24.181Z,0.80
2022-11-24T05:27:52.572Z,0.80
2022-11-24T05:30:21.117Z,1.10
2022-11-24T05:32:49.493Z,0.70
2022-11-24T05:35:19.017Z,0.60
2022-11-24T05:37:47.686Z,0.60
2022-11-24T05:40:16.269Z,0.60
2022-11-24T05:42:48.256Z,0.70
2022-11-24T05:45:19.166Z,0.70
2022-11-24T05:47:48.206Z,0.70
2022-11-24T05:50:18.982Z,0.70
2022-11-24T05:52:47.765Z,0.70
2022-11-24T05:55:19.706Z,0.70
2022-11-24T05:57:49.596Z,0.70
2022-11-24T06:00:20.337Z,0.70
2022-11-24T06:02:49.288Z,0.70
2022-11-24T06:05:18.042Z,0.70
2022-11-24T06:07:46.798Z,0.70
2022-11-24T06:10:15.782Z,0.60
2022-11-24T06:12:44.360Z,0.70
2022-11-24T06:15:15.028Z,0.70
2022-11-24T06:17:43.359Z,0.70
2022-11-24T06:20:12.610Z,0.70
2022-11-24T06:22:40.993Z,0.70
2022-11-24T06:25:10.673Z,0.70
2022-11-24T06:27:39.137Z,0.70
2022-11-24T06:30:08.386Z,0.80
2022-11-24T06:32:39.221Z,0.80
2022-11-24T06:35:08.210Z,0.80
2022-11-24T06:37:38.147Z,0.80
2022-11-24T06:40:08.878Z,0.70
2022-11-24T06:42:37.672Z,0.60
2022-11-24T06:45:09.467Z,0.60
2022-11-24T06:47:40.319Z,0.60
2022-11-24T06:50:10.673Z,0.50
2022-11-24T06:52:39.151Z,0.50
2022-11-24T06:55:08.916Z,0.50
2022-11-24T06:57:37.430Z,0.50
2022-11-24T07:00:06.602Z,0.50
2022-11-24T07:02:35.229Z,0.60
2022-11-24T07:05:07.019Z,0.60
2022-11-24T07:07:35.561Z,0.60
2022-11-24T07:10:04.296Z,0.60
2022-11-24T07:12:36.074Z,0.70
2022-11-24T07:15:06.010Z,0.70
2022-11-24T07:17:38.031Z,0.80
2022-11-24T07:20:09.857Z,0.80
2022-11-24T07:22:38.278Z,0.70
2022-11-24T07:25:09.891Z,0.70
2022-11-24T07:27:38.563Z,0.70
2022-11-24T07:30:08.085Z,0.80
2022-11-24T07:32:36.582Z,0.80
2022-11-24T07:35:05.496Z,0.90
2022-11-24T07:37:35.328Z,1.00
2022-11-24T07:40:03.856Z,1.00
2022-11-24T07:42:32.315Z,0.90
2022-11-24T07:45:04.120Z,1.00
2022-11-24T07:47:32.516Z,1.00
2022-11-24T07:50:00.947Z,1.00
2022-11-24T07:52:29.365Z,1.00
2022-11-24T07:54:59.735Z,1.10
2022-11-24T07:57:29.165Z,1.10
2022-11-24T07:59:58.722Z,1.20
2022-11-24T08:02:27.214Z,1.20
2022-11-24T08:04:55.696Z,1.30
2022-11-24T08:07:24.129Z,1.00
2022-11-24T08:09:53.040Z,1.40
2022-11-24T08:12:23.010Z,1.40
2022-11-24T08:14:51.784Z,1.50
2022-11-24T08:17:20.354Z,1.50
2022-11-24T08:19:48.872Z,1.40
2022-11-24T08:22:17.589Z,1.50
2022-11-24T08:24:48.585Z,1.50
2022-11-24T08:27:18.317Z,1.60
2022-11-24T08:29:48.393Z,1.60
2022-11-24T08:32:22.001Z,1.60
2022-11-24T08:34:52.111Z,1.70
2022-11-24T08:37:21.290Z,1.70
2022-11-24T08:39:49.696Z,1.70
2022-11-24T08:42:18.181Z,1.80
2022-11-24T08:44:48.115Z,1.90
2022-11-24T08:47:17.021Z,1.90
2022-11-24T08:49:45.518Z,2.00
2022-11-24T08:52:14.154Z,2.00
2022-11-24T08:54:44.539Z,2.00
2022-11-24T08:57:20.203Z,2.10
2022-11-24T08:59:51.928Z,2.20
2022-11-24T09:02:20.457Z,2.50
2022-11-24T09:04:49.053Z,2.80
2022-11-24T09:07:17.870Z,2.90
2022-11-24T09:09:46.479Z,2.80
2022-11-24T09:12:15.056Z,2.60
2022-11-24T09:14:43.925Z,2.70
2022-11-24T09:17:13.985Z,2.70
2022-11-24T09:19:42.472Z,2.80
2022-11-24T09:22:11.246Z,2.70
2022-11-24T09:24:39.726Z,2.70
2022-11-24T09:27:08.352Z,3.00
2022-11-24T09:29:36.998Z,3.00
2022-11-24T09:32:07.113Z,3.00
2022-11-24T09:34:37.315Z,3.10
2022-11-24T09:37:05.912Z,3.40
2022-11-24T09:39:34.655Z,3.50
2022-11-24T09:42:14.590Z,3.60
2022-11-24T09:45:10.412Z,3.40
2022-11-24T09:47:52.239Z,3.30
2022-11-24T09:50:24.265Z,3.40
2022-11-24T09:53:01.252Z,3.40
2022-11-24T09:55:36.057Z,3.40
2022-11-24T09:58:14.891Z,3.30
2022-11-24T10:00:44.197Z,3.30
2022-11-24T10:03:21.243Z,3.30
2022-11-24T10:05:52.984Z,3.30
2022-11-24T10:08:44.483Z,3.30
2022-11-24T10:11:16.505Z,3.40
2022-11-24T10:14:23.843Z,3.50
2022-11-24T10:16:59.225Z,3.60
2022-11-24T10:19:40.960Z,3.90
2022-11-24T10:22:28.770Z,4.00
2022-11-24T10:25:16.905Z,4.20
2022-11-24T10:27:48.287Z,4.40
2022-11-24T10:30:20.997Z,4.50
2022-11-24T10:32:51.530Z,4.50
2022-11-24T10:35:23.164Z,4.40
2022-11-24T10:38:02.323Z,4.50
2022-11-24T10:40:56.665Z,4.30
2022-11-24T10:43:28.521Z,4.40
2022-11-24T10:46:00.953Z,4.50
2022-11-24T10:48:38.832Z,4.40
2022-11-24T10:51:33.876Z,4.20
2022-11-24T10:54:11.268Z,4.20
2022-11-24T10:56:43.704Z,4.20
2022-11-24T10:59:39.708Z,4.20
2022-11-24T11:02:30.470Z,4.30
2022-11-24T11:04:59.256Z,4.40
2022-11-24T11:07:28.731Z,4.50
2022-11-24T11:10:22.359Z,4.60
2022-11-24T11:12:51.526Z,4.60
2022-11-24T11:15:30.292Z,4.60
2022-11-24T11:18:01.339Z,4.90
2022-11-24T11:20:32.769Z,5.00
2022-11-24T11:23:05.158Z,5.20
2022-11-24T11:25:38.486Z,5.30
2022-11-24T11:28:30.598Z,5.50
2022-11-24T11:31:19.978Z,5.60
2022-11-24T11:34:09.433Z,5.80
2022-11-24T11:36:46.324Z,5.80
2022-11-24T11:39:24.350Z,5.40
2022-11-24T11:42:02.362Z,5.40
2022-11-24T11:44:37.911Z,5.40
2022-11-24T11:47:18.407Z,5.50
2022-11-24T11:49:50.599Z,5.60
2022-11-24T11:52:58.814Z,5.50
2022-11-24T11:55:53.998Z,5.50
2022-11-24T11:59:00.407Z,5.40
2022-11-24T12:01:42.672Z,5.10
2022-11-24T12:04:21.845Z,5.00
2022-11-24T12:07:07.606Z,5.10
2022-11-24T12:09:49.991Z,5.10
2022-11-24T12:12:40.834Z,5.00
2022-11-24T12:15:19.933Z,5.10
2022-11-24T12:17:55.545Z,5.10
2022-11-24T12:20:41.898Z,4.50
2022-11-24T12:23:26.752Z,5.10
2022-11-24T12:26:02.831Z,5.00
2022-11-24T12:28:43.553Z,5.00
2022-11-24T12:31:21.444Z,5.00
2022-11-24T12:34:31.614Z,5.10
2022-11-24T12:37:23.034Z,5.30
2022-11-24T12:39:58.387Z,5.20
2022-11-24T12:42:38.766Z,5.30
2022-11-24T12:45:16.457Z,5.40
2022-11-24T12:48:05.202Z,5.30
2022-11-24T12:50:39.403Z,5.30
2022-11-24T12:53:14.536Z,5.20
2022-11-24T12:55:44.986Z,5.30
2022-11-24T12:58:21.364Z,5.40
2022-11-24T13:01:18.922Z,5.40
2022-11-24T13:04:02.233Z,5.50
2022-11-24T13:06:44.425Z,5.50
2022-11-24T13:09:16.542Z,5.40
2022-11-24T13:11:47.145Z,5.40
2022-11-24T13:14:22.465Z,5.40
2022-11-24T13:17:21.890Z,5.40
2022-11-24T13:19:44.033Z,5.40
2022-11-24T13:22:25.747Z,5.40
2022-11-24T13:25:17.685Z,5.50
2022-11-24T13:27:49.727Z,5.50
2022-11-24T13:30:59.883Z,5.60
2022-11-24T13:33:34.373Z,5.70
2022-11-24T13:36:33.314Z,5.70
2022-11-24T13:39:03.427Z,5.60
2022-11-24T13:42:42.175Z,5.60
2022-11-24T13:45:02.256Z,5.70
2022-11-24T13:47:36.858Z,5.60
2022-11-24T13:50:08.303Z,5.70
2022-11-24T13:52:47.418Z,5.70
2022-11-24T13:55:33.424Z,5.70
2022-11-24T13:58:28.811Z,5.70
2022-11-24T14:01:08.508Z,5.60
2022-11-24T14:03:40.438Z,5.60
2022-11-24T14:06:19.010Z,5.60
2022-11-24T14:08:50.140Z,5.60
2022-11-24T14:11:21.036Z,5.50
2022-11-24T14:13:50.838Z,5.50
2022-11-24T14:16:21.873Z,5.50
2022-11-24T14:18:52.070Z,5.50
2022-11-24T14:21:32.043Z,5.40
2022-11-24T14:24:12.661Z,5.10
2022-11-24T14:26:42.590Z,5.40
2022-11-24T14:29:16.388Z,5.30
2022-11-24T14:31:53.263Z,5.40
2022-11-24T14:34:23.887Z,5.30
2022-11-24T14:36:54.768Z,5.30
2022-11-24T14:39:26.218Z,5.30
2022-11-24T14:42:00.562Z,5.20
2022-11-24T14:44:31.135Z,5.30
2022-11-24T14:47:04.492Z,5.30
2022-11-24T14:49:35.208Z,5.30
2022-11-24T14:52:10.228Z,5.30
2022-11-24T14:54:48.287Z,5.30
2022-11-24T14:57:26.303Z,5.30
2022-11-24T15:00:19.532Z,5.30
2022-11-24T15:02:52.043Z,5.30
2022-11-24T15:05:25.664Z,5.20
2022-11-24T15:08:03.628Z,5.20
2022-11-24T15:10:38.730Z,5.20
2022-11-24T15:13:17.688Z,5.20
2022-11-24T15:15:53.048Z,5.20
2022-11-24T15:18:28.423Z,5.20
2022-11-24T15:20:57.816Z,5.20
2022-11-24T15:23:28.360Z,5.10
2022-11-24T15:25:59.694Z,5.10
2022-11-24T15:28:28.301Z,5.10
2022-11-24T15:30:58.180Z,5.10
2022-11-24T15:33:27.220Z,5.00
2022-11-24T15:35:55.927Z,5.00
2022-11-24T15:38:25.166Z,5.00
2022-11-24T15:40:56.820Z,5.00
2022-11-24T15:43:32.028Z,5.00
2022-11-24T15:46:01.961Z,5.00
2022-11-24T15:48:31.489Z,5.00
2022-11-24T15:51:02.582Z,5.00
2022-11-24T15:53:34.385Z,5.00
2022-11-24T15:56:05.987Z,5.00
2022-11-24T15:58:37.384Z,5.00
2022-11-24T16:01:07.224Z,5.00
2022-11-24T16:03:52.724Z,5.10
2022-11-24T16:06:25.057Z,5.10
2022-11-24T16:08:54.269Z,5.10
2022-11-24T16:11:23.094Z,5.10
2022-11-24T16:13:54.584Z,5.10
2022-11-24T16:16:25.401Z,5.10
2022-11-24T16:18:54.270Z,5.10
2022-11-24T16:21:23.444Z,5.20
2022-11-24T16:23:52.054Z,5.20
2022-11-24T16:26:20.902Z,5.20
2022-11-24T16:28:50.173Z,5.20
2022-11-24T16:31:20.484Z,5.20
2022-11-24T16:33:50.960Z,5.20
2022-11-24T16:36:19.569Z,5.20
2022-11-24T16:38:48.160Z,5.10
2022-11-24T16:41:16.765Z,5.10
2022-11-24T16:43:45.318Z,5.10
2022-11-24T16:46:26.154Z,5.10
2022-11-24T16:48:56.553Z,5.00
2022-11-24T16:51:29.966Z,5.00
2022-11-24T16:54:03.265Z,5.00
2022-11-24T16:56:33.040Z,5.00
2022-11-24T16:59:01.990Z,4.90
2022-11-24T17:01:33.247Z,4.80
2022-11-24T17:04:02.130Z,4.80
2022-11-24T17:06:31.056Z,4.70
2022-11-24T17:08:59.727Z,4.70
2022-11-24T17:11:29.496Z,4.60
2022-11-24T17:13:58.910Z,4.60
2022-11-24T17:16:28.726Z,4.60
2022-11-24T17:18:59.064Z,4.50
2022-11-24T17:21:28.859Z,4.50
2022-11-24T17:23:59.379Z,4.40
2022-11-24T17:26:30.741Z,4.40
2022-11-24T17:29:00.613Z,4.40
2022-11-24T17:31:32.668Z,4.40
2022-11-24T17:34:04.102Z,4.50
2022-11-24T17:36:34.696Z,4.50
2022-11-24T17:39:05.429Z,4.50
2022-11-24T17:41:34.750Z,4.50
2022-11-24T17:44:03.294Z,4.50
2022-11-24T17:46:32.522Z,4.50
2022-11-24T17:49:03.250Z,4.50
2022-11-24T17:51:31.814Z,4.50
2022-11-24T17:54:06.021Z,4.60
2022-11-24T17:56:48.598Z,4.60
2022-11-24T17:59:17.156Z,4.60
2022-11-24T18:01:45.684Z,4.60
2022-11-24T18:04:15.642Z,4.60
2022-11-24T18:06:48.806Z,4.60
2022-11-24T18:09:17.316Z,4.70
2022-11-24T18:11:47.014Z,4.70
2022-11-24T18:14:15.393Z,4.60
2022-11-24T18:16:44.396Z,4.70
2022-11-24T18:19:14.448Z,4.60
2022-11-24T18:21:46.579Z,4.70
2022-11-24T18:24:18.527Z,4.60
2022-11-24T18:26:50.519Z,4.70
2022-11-24T18:29:19.035Z,4.70
2022-11-24T18:31:48.679Z,4.70
2022-11-24T18:34:19.773Z,4.60
2022-11-24T18:36:52.164Z,4.60
2022-11-24T18:39:20.903Z,4.60
2022-11-24T18:41:49.229Z,4.50
2022-11-24T18:44:18.899Z,4.50
2022-11-24T18:46:47.693Z,4.40
2022-11-24T18:49:17.683Z,4.40
2022-11-24T18:51:47.346Z,4.30
2022-11-24T18:54:15.757Z,4.30
2022-11-24T18:56:45.083Z,4.20
2022-11-24T18:59:13.690Z,4.10
2022-11-24T19:01:44.555Z,4.10
2022-11-24T19:04:15.666Z,4.10
2022-11-24T19:06:45.576Z,4.10
2022-11-24T19:09:17.392Z,4.10
2022-11-24T19:11:47.424Z,4.20
2022-11-24T19:14:18.141Z,4.10
2022-11-24T19:16:48.004Z,4.10
2022-11-24T19:19:17.361Z,4.00
2022-11-24T19:21:47.739Z,3.90
2022-11-24T19:24:16.341Z,3.90
2022-11-24T19:26:45.518Z,3.80
2022-11-24T19:29:14.976Z,3.70
2022-11-24T19:31:44.071Z,3.70
2022-11-24T19:34:12.910Z,3.60
2022-11-24T19:36:43.341Z,3.50
2022-11-24T19:39:15.734Z,3.50
2022-11-24T19:41:44.107Z,3.40
2022-11-24T19:44:13.689Z,3.30
2022-11-24T19:46:42.552Z,3.20
2022-11-24T19:49:11.257Z,3.20
2022-11-24T19:51:40.869Z,3.20
2022-11-24T19:54:12.995Z,3.20
2022-11-24T19:56:43.062Z,3.20
2022-11-24T19:59:14.752Z,3.10
2022-11-24T20:01:43.912Z,3.00
2022-11-24T20:04:15.240Z,3.00
2022-11-24T20:06:45.193Z,3.00
2022-11-24T20:09:15.758Z,2.90
2022-11-24T20:11:46.638Z,3.10
2022-11-24T20:14:17.691Z,3.10
2022-11-24T20:16:49.278Z,3.10
2022-11-24T20:19:19.402Z,3.10
2022-11-24T20:21:50.153Z,3.10
2022-11-24T20:24:21.080Z,3.10
2022-11-24T20:26:54.388Z,3.00
2022-11-24T20:29:23.331Z,3.00
2022-11-24T20:31:54.395Z,3.00
2022-11-24T20:34:23.582Z,2.90
2022-11-24T20:36:53.813Z,2.90
2022-11-24T20:39:25.631Z,2.90
2022-11-24T20:41:56.574Z,2.90
2022-11-24T20:44:27.968Z,2.90
2022-11-24T20:46:59.787Z,2.90
2022-11-24T20:49:29.155Z,2.80
2022-11-24T20:51:57.744Z,2.80
2022-11-24T20:54:26.489Z,2.70
2022-11-24T20:56:56.539Z,2.70
2022-11-24T20:59:26.871Z,2.70
2022-11-24T21:01:57.385Z,2.70
2022-11-24T21:04:28.479Z,2.70
2022-11-24T21:06:57.066Z,2.70
2022-11-24T21:09:27.270Z,2.80
2022-11-24T21:11:57.543Z,2.90
2022-11-24T21:14:27.440Z,2.90
2022-11-24T21:16:57.731Z,2.90
2022-11-24T21:19:26.084Z,2.90
2022-11-24T21:21:54.502Z,2.90
2022-11-24T21:24:22.929Z,2.90
2022-11-24T21:26:53.215Z,2.90
2022-11-24T21:29:25.659Z,2.90
2022-11-24T21:31:55.069Z,2.90
2022-11-24T21:34:23.878Z,2.90
2022-11-24T21:36:52.487Z,2.90
2022-11-24T21:39:21.177Z,3.00
2022-11-24T21:41:49.760Z,2.90
2022-11-24T21:44:18.277Z,2.90
2022-11-24T21:46:54.327Z,2.90
2022-11-24T21:49:24.401Z,2.90
2022-11-24T21:51:56.237Z,2.90
2022-11-24T21:54:27.203Z,2.90
2022-11-24T21:56:55.770Z,2.90
2022-11-24T21:59:24.370Z,2.90
2022-11-24T22:01:54.346Z,2.90
2022-11-24T22:04:23.856Z,2.90
2022-11-24T22:06:54.568Z,3.00
2022-11-24T22:09:23.116Z,3.00
2022-11-24T22:11:52.719Z,3.00
2022-11-24T22:14:21.640Z,3.00
2022-11-24T22:16:50.353Z,3.00
2022-11-24T22:19:21.086Z,3.10
2022-11-24T22:21:49.819Z,3.10
2022-11-24T22:24:21.693Z,3.10
2022-11-24T22:26:52.936Z,3.10
2022-11-24T22:29:21.762Z,3.40
2022-11-24T22:31:50.335Z,3.20
2022-11-24T22:34:20.376Z,3.20
2022-11-24T22:36:49.090Z,3.30
2022-11-24T22:39:19.423Z,3.30
2022-11-24T22:41:48.023Z,3.30
2022-11-24T22:44:18.109Z,3.40
2022-11-24T22:46:46.752Z,3.40
2022-11-24T22:49:15.476Z,3.40
2022-11-24T22:51:45.435Z,3.50
2022-11-24T22:54:15.146Z,3.50
2022-11-24T22:56:43.653Z,3.50
2022-11-24T22:59:12.505Z,3.50
2022-11-24T23:01:40.998Z,3.50
2022-11-24T23:04:09.908Z,3.50
2022-11-24T23:06:44.384Z,3.60
2022-11-24T23:09:13.431Z,3.60
2022-11-24T23:11:42.581Z,3.60
2022-11-24T23:14:15.043Z,3.60
2022-11-24T23:16:44.781Z,3.60
2022-11-24T23:19:15.753Z,3.60
2022-11-24T23:21:45.675Z,3.60
2022-11-24T23:24:14.050Z,3.80
2022-11-24T23:26:43.855Z,4.00
2022-11-24T23:29:12.943Z,4.20
2022-11-24T23:31:41.537Z,4.50
2022-11-24T23:34:12.585Z,4.60
2022-11-24T23:36:40.960Z,4.60
2022-11-24T23:39:14.361Z,4.50
2022-11-24T23:41:43.130Z,4.30
2022-11-24T23:44:11.518Z,4.30
2022-11-24T23:46:39.886Z,4.20
2022-11-24T23:49:08.490Z,4.20
